Time;durP1;ratioP1;P1;durP2;ratioP2;P2;SDS_P1;SDS_P2;PMS_P1;PMS_P2;Temp;Humidity;BMP_temperature;BMP_pressure;BME280_temperature;BME280_humidity;BME280_pressure;Samples;Min_cycle;Max_cycle;Signal;HPM_P1;HPM_P2
2022/02/11 00:06:51;;;;;;;32.22;21.77;;;;;;;2.49;84.96;96444.50;5074043;28;20060;-56
2022/02/11 00:09:17;;;;;;;31.25;21.75;;;;;;;2.49;85.48;96438.47;5066681;28;20085;-55
2022/02/11 00:11:42;;;;;;;26.35;18.42;;;;;;;2.48;84.71;96440.22;5066837;28;20040;-55
2022/02/11 00:14:09;;;;;;;25.67;16.98;;;;;;;2.63;84.38;96440.41;5076941;28;20063;-56
2022/02/11 00:16:38;;;;;;;23.08;15.48;;;;;;;2.79;83.46;96433.53;5082073;28;20415;-56
2022/02/11 00:19:03;;;;;;;14.88;11.18;;;;;;;3.18;82.88;96435.97;5075030;28;20028;-56
2022/02/11 00:21:29;;;;;;;14.13;10.35;;;;;;;3.03;82.87;96435.84;5074142;28;20093;-54
2022/02/11 00:23:59;;;;;;;16.33;11.45;;;;;;;2.90;83.86;96435.63;5072496;28;20048;-56
2022/02/11 00:26:30;;;;;;;14.32;11.07;;;;;;;2.83;84.31;96429.88;5074567;28;20480;-56
2022/02/11 00:30:15;;;;;;;16.13;11.52;;;;;;;2.82;84.09;96437.72;5076252;28;20110;-56
2022/02/11 00:31:58;;;;;;;25.45;13.40;;;;;;;2.81;84.50;96439.50;5066660;28;20385;-56
2022/02/11 00:34:31;;;;;;;22.52;16.58;;;;;;;2.81;84.86;96442.09;5072180;28;20031;-56
2022/02/11 00:37:20;;;;;;;19.88;12.95;;;;;;;2.81;84.88;96443.84;5069183;28;20035;-57
2022/02/11 00:40:44;;;;;;;13.18;10.60;;;;;;;2.82;84.97;96437.72;5072445;28;20041;-56
2022/02/11 01:04:07;;;;;;;12.57;9.90;;;;;;;2.76;86.35;96431.06;5071788;28;20050;-56
2022/02/11 01:06:33;;;;;;;12.77;10.50;;;;;;;2.77;85.71;96430.19;5053800;28;20484;-56
2022/02/11 01:08:58;;;;;;;13.77;11.05;;;;;;;2.77;86.15;96417.19;5068173;28;20029;-57
2022/02/11 01:11:50;;;;;;;10.68;9.52;;;;;;;2.77;85.84;96409.38;5069723;28;20044;-55
2022/02/11 01:14:10;;;;;;;13.40;10.38;;;;;;;2.77;86.45;96419.78;5074471;28;20127;-56
2022/02/11 01:19:16;;;;;;;11.40;9.65;;;;;;;2.78;85.20;96408.47;5073715;28;20036;-57
2022/02/11 01:21:54;;;;;;;14.50;9.48;;;;;;;2.81;84.70;96408.28;5077436;28;20549;-56
2022/02/11 01:29:46;;;;;;;11.63;10.18;;;;;;;2.76;85.91;96392.06;5069752;28;20033;-57
2022/02/11 01:32:25;;;;;;;10.85;9.73;;;;;;;2.79;85.92;96391.94;5068032;28;20029;-55
2022/02/11 01:35:47;;;;;;;11.48;9.55;;;;;;;2.82;85.81;96383.97;5068634;28;20502;-56
2022/02/11 02:15:20;;;;;;;14.43;9.10;;;;;;;2.98;85.11;96372.75;5073719;28;20043;-56
2022/02/11 02:57:11;;;;;;;10.45;7.15;;;;;;;3.43;83.60;96370.47;5069101;28;20047;-56
2022/02/11 03:16:01;;;;;;;10.32;4.75;;;;;;;3.63;83.50;96366.78;5075723;28;20047;-54
2022/02/11 03:34:53;;;;;;;14.27;7.60;;;;;;;4.10;81.58;96385.16;5072690;28;20043;-52
2022/02/11 04:21:38;;;;;;;13.80;9.20;;;;;;;3.79;87.31;96438.91;5068383;28;20043;-57
2022/02/11 04:55:27;;;;;;;12.52;8.95;;;;;;;3.90;94.10;96509.53;5074764;28;20389;-57
2022/02/11 05:00:39;;;;;;;13.63;7.95;;;;;;;4.08;94.00;96501.63;5070029;28;20047;-58
2022/02/11 05:03:05;;;;;;;15.07;8.48;;;;;;;3.97;95.50;96499.59;5070456;28;20119;-56
2022/02/11 05:05:48;;;;;;;14.30;9.80;;;;;;;3.89;96.42;96496.56;5068809;28;20103;-58
2022/02/11 05:08:24;;;;;;;12.13;8.90;;;;;;;3.80;96.28;96503.09;5069320;28;20063;-59
2022/02/11 05:10:55;;;;;;;18.65;9.95;;;;;;;3.73;97.03;96502.56;5066461;28;20095;-59
2022/02/11 05:13:21;;;;;;;13.55;10.50;;;;;;;3.68;97.58;96505.44;5073394;28;20051;-57
2022/02/11 05:15:47;;;;;;;14.57;10.55;;;;;;;3.65;98.54;96505.59;5069684;28;20028;-57
2022/02/11 05:18:12;;;;;;;14.18;9.90;;;;;;;3.63;99.44;96506.59;5073832;28;20051;-56
2022/02/11 05:20:39;;;;;;;14.30;9.65;;;;;;;3.65;100.00;96509.97;5070108;28;20044;-56
2022/02/11 05:23:06;;;;;;;18.15;11.07;;;;;;;3.62;99.80;96510.94;5068666;28;20116;-57
2022/02/11 05:25:31;;;;;;;14.80;9.60;;;;;;;3.62;99.99;96505.72;5071224;28;20456;-55
2022/02/11 05:27:56;;;;;;;12.55;9.30;;;;;;;3.62;100.00;96508.34;5070600;28;20064;-57
2022/02/11 05:30:22;;;;;;;13.93;9.52;;;;;;;3.63;100.00;96509.19;5069902;28;20063;-56
2022/02/11 05:32:47;;;;;;;15.13;9.68;;;;;;;3.75;98.84;96500.72;5068064;28;20440;-55
2022/02/11 05:35:13;;;;;;;12.95;9.15;;;;;;;3.91;98.28;96506.00;5069774;28;20063;-56
2022/02/11 05:37:38;;;;;;;11.75;9.32;;;;;;;3.78;100.00;96511.00;5068469;28;20037;-58
2022/02/11 05:40:04;;;;;;;10.77;9.05;;;;;;;3.75;100.00;96507.72;5070944;28;20039;-57
2022/02/11 05:42:29;;;;;;;15.68;11.48;;;;;;;3.76;99.50;96515.47;5074224;28;20037;-58
2022/02/11 05:44:55;;;;;;;12.95;9.60;;;;;;;3.72;100.00;96512.16;5079448;28;20043;-56
2022/02/11 05:47:20;;;;;;;10.68;8.95;;;;;;;3.73;100.00;96526.88;5075464;28;20499;-56
2022/02/11 05:49:46;;;;;;;10.05;9.05;;;;;;;3.69;100.00;96530.56;5060753;28;20036;-57
2022/02/11 05:52:11;;;;;;;11.55;8.40;;;;;;;3.69;100.00;96530.56;5072658;28;20099;-57
2022/02/11 05:54:36;;;;;;;11.75;9.05;;;;;;;3.72;100.00;96537.34;5073823;28;20032;-56
2022/02/11 05:57:02;;;;;;;10.82;9.27;;;;;;;3.72;100.00;96537.34;5072963;28;20021;-57
2022/02/11 05:59:27;;;;;;;11.88;8.75;;;;;;;3.73;100.00;96552.91;5078319;28;20058;-57
2022/02/11 06:01:52;;;;;;;13.15;10.35;;;;;;;3.73;100.00;96545.09;5076665;28;20033;-58
2022/02/11 06:04:20;;;;;;;15.32;11.23;;;;;;;3.76;100.00;96551.06;5075805;28;20110;-57
2022/02/11 06:06:46;;;;;;;17.40;10.88;;;;;;;3.78;100.00;96551.84;5070502;28;20024;-57
2022/02/11 06:09:11;;;;;;;13.43;10.23;;;;;;;3.77;100.00;96558.81;5082136;28;20074;-56
2022/02/11 06:11:37;;;;;;;19.17;14.18;;;;;;;3.80;100.00;96565.63;5077622;28;20029;-58
2022/02/11 06:14:02;;;;;;;17.15;13.48;;;;;;;3.78;100.00;96557.91;5075366;28;20416;-57
2022/02/11 06:16:27;;;;;;;13.57;11.55;;;;;;;3.77;100.00;96568.38;5074165;28;20028;-57
2022/02/11 06:18:53;;;;;;;15.40;10.02;;;;;;;3.79;100.00;96576.97;5073558;28;20470;-57
2022/02/11 06:21:18;;;;;;;14.75;9.23;;;;;;;3.71;100.00;96583.41;5070542;28;20064;-58
2022/02/11 06:23:43;;;;;;;11.45;8.50;;;;;;;3.67;100.00;96581.88;5060647;28;20027;-57
2022/02/11 06:26:09;;;;;;;10.35;7.72;;;;;;;3.67;100.00;96574.06;5070515;28;20028;-57
2022/02/11 06:28:34;;;;;;;11.80;8.85;;;;;;;3.69;100.00;96580.03;5069924;28;20533;-57
2022/02/11 06:31:00;;;;;;;11.10;8.27;;;;;;;3.69;100.00;96587.88;5070663;28;20031;-57
2022/02/11 06:33:25;;;;;;;10.00;8.23;;;;;;;3.69;100.00;96595.69;5070921;28;20056;-58
2022/02/11 06:35:50;;;;;;;12.05;7.55;;;;;;;3.70;100.00;96586.09;5074979;28;20028;-56
2022/02/11 06:38:17;;;;;;;10.13;7.70;;;;;;;3.66;100.00;96589.78;5074954;28;20697;-59
2022/02/11 06:40:43;;;;;;;9.38;7.85;;;;;;;3.66;100.00;96601.03;5073162;28;20051;-58
2022/02/11 06:43:10;;;;;;;13.00;8.20;;;;;;;3.69;100.00;96605.25;5058536;28;20112;-57
2022/02/11 06:45:36;;;;;;;12.50;7.97;;;;;;;3.70;100.00;96619.94;5080197;28;20050;-59
2022/02/11 06:48:01;;;;;;;19.08;12.32;;;;;;;3.72;100.00;96621.56;5074056;28;20029;-59
2022/02/11 06:50:27;;;;;;;13.45;9.05;;;;;;;3.70;100.00;96633.81;5077417;28;20033;-56
2022/02/11 06:52:55;;;;;;;14.27;9.00;;;;;;;3.66;100.00;96637.50;5079240;28;20237;-56
2022/02/11 06:55:23;;;;;;;12.50;9.75;;;;;;;3.68;100.00;96648.69;5072428;28;20119;-55
2022/02/11 06:57:48;;;;;;;13.10;9.82;;;;;;;3.70;100.00;96653.81;5075385;28;20107;-58
2022/02/11 07:00:14;;;;;;;10.40;9.32;;;;;;;3.71;100.00;96656.34;5074463;28;20104;-56
2022/02/11 07:02:41;;;;;;;12.05;9.38;;;;;;;3.72;100.00;96651.97;5080901;28;20088;-56
2022/02/11 07:05:07;;;;;;;12.05;8.93;;;;;;;3.76;100.00;96665.69;5072915;28;20016;-58
2022/02/11 07:07:33;;;;;;;13.63;10.80;;;;;;;3.71;100.00;96673.72;5074156;28;20146;-55
2022/02/11 07:09:58;;;;;;;14.32;11.60;;;;;;;3.70;100.00;96670.28;5072154;28;20059;-57
2022/02/11 07:12:24;;;;;;;15.45;13.82;;;;;;;3.73;100.00;96670.13;5075452;28;20475;-57
2022/02/11 07:14:49;;;;;;;26.25;17.20;;;;;;;3.76;100.00;96684.78;5080364;28;20125;-52
2022/02/11 07:17:14;;;;;;;15.93;13.15;;;;;;;3.77;100.00;96680.41;5075652;28;20044;-56
2022/02/11 07:19:40;;;;;;;13.60;11.75;;;;;;;3.76;100.00;96668.28;5078090;28;20036;-55
2022/02/11 07:22:05;;;;;;;15.75;11.07;;;;;;;3.75;100.00;96675.25;5078520;28;20036;-56
2022/02/11 07:24:31;;;;;;;16.48;13.40;;;;;;;3.79;100.00;96678.56;5079172;28;20058;-55
2022/02/11 07:26:57;;;;;;;14.90;12.57;;;;;;;3.78;100.00;96689.91;5081089;28;20035;-56
2022/02/11 07:29:23;;;;;;;12.40;10.82;;;;;;;3.79;100.00;96699.41;5076507;28;20399;-56
2022/02/11 07:31:49;;;;;;;12.50;9.32;;;;;;;3.81;100.00;96707.97;5081011;28;20021;-56
2022/02/11 07:34:15;;;;;;;13.98;12.50;;;;;;;3.83;100.00;96703.53;5077965;28;20557;-54
2022/02/11 07:36:40;;;;;;;13.85;12.43;;;;;;;3.83;100.00;96711.34;5071528;28;20407;-56
2022/02/11 07:39:06;;;;;;;14.40;10.63;;;;;;;3.86;100.00;96721.63;5074850;28;20036;-55
2022/02/11 07:41:32;;;;;;;23.25;20.85;;;;;;;3.85;100.00;96714.72;5073669;28;20028;-59
2022/02/11 07:43:57;;;;;;;11.38;10.18;;;;;;;3.86;100.00;96721.63;5076925;28;20049;-57
2022/02/11 07:46:23;;;;;;;14.15;11.45;;;;;;;3.87;100.00;96723.31;5084339;28;20505;-59
2022/02/11 07:48:48;;;;;;;14.10;11.93;;;;;;;3.86;100.00;96726.81;5077754;28;20102;-57
2022/02/11 07:51:14;;;;;;;13.43;10.32;;;;;;;3.81;100.00;96728.81;5078782;28;20032;-58
2022/02/11 07:53:40;;;;;;;11.93;9.23;;;;;;;3.80;100.00;96727.13;5076866;28;20063;-58
2022/02/11 07:56:05;;;;;;;12.75;10.40;;;;;;;3.84;100.00;96731.25;5073545;28;20032;-59
2022/02/11 07:58:31;;;;;;;16.25;11.15;;;;;;;3.87;100.00;96723.31;5074854;28;20033;-57
2022/02/11 08:01:00;;;;;;;13.15;10.68;;;;;;;3.91;100.00;96727.47;5077371;28;20032;-58
2022/02/11 08:03:26;;;;;;;12.68;10.05;;;;;;;3.98;100.00;96721.03;5073894;28;20604;-58
2022/02/11 08:05:52;;;;;;;17.88;13.55;;;;;;;4.07;100.00;96729.28;5068530;28;20132;-58
2022/02/11 08:08:20;;;;;;;14.88;11.40;;;;;;;4.29;100.00;96716.03;5072292;28;20036;-58
2022/02/11 08:10:45;;;;;;;14.48;11.00;;;;;;;4.26;100.00;96730.06;5074600;28;20464;-59
2022/02/11 08:13:11;;;;;;;11.18;10.07;;;;;;;4.30;100.00;96734.19;5078235;28;20055;-59
2022/02/11 08:15:36;;;;;;;13.73;10.48;;;;;;;4.29;100.00;96735.13;5080127;28;20116;-58
2022/02/11 08:18:01;;;;;;;12.88;11.40;;;;;;;4.22;100.00;96738.13;5073843;28;20140;-58
2022/02/11 08:20:27;;;;;;;11.52;10.30;;;;;;;4.20;100.00;96734.72;5072949;28;20727;-58
2022/02/11 08:22:52;;;;;;;11.48;9.82;;;;;;;4.24;100.00;96742.34;5078635;28;20071;-58
2022/02/11 08:25:18;;;;;;;10.52;9.52;;;;;;;4.25;100.00;96748.41;5074231;28;20024;-57
2022/02/11 08:27:44;;;;;;;11.10;9.95;;;;;;;4.23;100.00;96751.06;5074431;28;20704;-58
2022/02/11 08:30:11;;;;;;;12.07;10.80;;;;;;;4.23;100.00;96751.06;5072314;28;20082;-58
2022/02/11 08:32:37;;;;;;;10.52;9.05;;;;;;;4.24;100.00;96757.16;5073869;28;20513;-58
2022/02/11 08:35:03;;;;;;;11.75;8.30;;;;;;;4.26;100.00;96761.34;5078637;28;20029;-58
2022/02/11 08:37:28;;;;;;;10.38;8.93;;;;;;;4.29;100.00;96758.59;5079874;28;20051;-58
2022/02/11 08:39:54;;;;;;;10.45;8.13;;;;;;;4.29;100.00;96763.78;5079332;28;20032;-58
2022/02/11 08:42:20;;;;;;;13.02;9.80;;;;;;;4.30;100.00;96762.03;5076120;28;20085;-58
2022/02/11 08:44:45;;;;;;;8.55;7.70;;;;;;;4.30;100.00;96772.47;5074668;28;20025;-58
2022/02/11 08:47:11;;;;;;;11.90;8.15;;;;;;;4.32;100.00;96772.41;5074058;28;20035;-60
2022/02/11 08:49:38;;;;;;;7.13;6.43;;;;;;;4.39;100.00;96771.19;5077479;28;20848;-57
2022/02/11 08:52:04;;;;;;;7.45;5.80;;;;;;;4.40;100.00;96773.69;5071316;28;21632;-58
2022/02/11 08:54:30;;;;;;;5.80;5.30;;;;;;;4.46;100.00;96782.97;5079107;28;20506;-59
2022/02/11 08:56:55;;;;;;;6.05;4.85;;;;;;;4.50;100.00;96778.47;5075272;28;20031;-59
2022/02/11 08:59:21;;;;;;;5.80;5.25;;;;;;;4.50;100.00;96789.72;5074091;28;20035;-58
2022/02/11 09:01:47;;;;;;;7.72;6.65;;;;;;;4.52;100.00;96785.25;5076616;28;20040;-58
2022/02/11 09:04:12;;;;;;;9.05;8.15;;;;;;;4.77;100.00;96777.97;5073008;28;20155;-59
2022/02/11 09:06:37;;;;;;;8.38;7.15;;;;;;;4.66;100.00;96783.72;5079527;28;20416;-58
2022/02/11 09:09:04;;;;;;;8.68;7.63;;;;;;;4.74;100.00;96786.78;5060511;28;20742;-57
2022/02/11 09:11:29;;;;;;;4.85;4.45;;;;;;;4.79;100.00;96789.16;5074401;28;20029;-59
2022/02/11 09:13:55;;;;;;;5.93;4.30;;;;;;;4.95;100.00;96781.38;5068657;28;20024;-59
2022/02/11 09:16:21;;;;;;;4.32;3.92;;;;;;;4.92;100.00;96786.75;5068626;28;20487;-59
2022/02/11 09:18:47;;;;;;;5.90;5.18;;;;;;;4.93;100.00;96791.91;5083470;28;20024;-58
2022/02/11 09:21:13;;;;;;;6.60;6.05;;;;;;;5.00;100.00;96788.03;5073457;28;20062;-58
2022/02/11 09:23:38;;;;;;;7.45;6.75;;;;;;;5.00;100.00;96795.03;5070853;28;20385;-59
2022/02/11 09:26:04;;;;;;;8.13;7.05;;;;;;;5.16;100.00;96805.53;5079099;28;20036;-59
2022/02/11 09:28:29;;;;;;;10.77;8.80;;;;;;;5.04;100.00;96809.63;5076081;28;20036;-58
2022/02/11 09:30:55;;;;;;;11.80;10.68;;;;;;;4.98;100.00;96800.34;5078504;28;20020;-58
2022/02/11 09:33:21;;;;;;;16.08;14.02;;;;;;;4.95;100.00;96807.47;5069238;28;20036;-59
2022/02/11 09:35:47;;;;;;;7.45;6.72;;;;;;;4.87;100.00;96808.72;5078823;28;20024;-58
2022/02/11 09:38:13;;;;;;;7.82;6.82;;;;;;;4.87;100.00;96810.50;5077655;28;20036;-59
2022/02/11 09:40:40;;;;;;;5.25;4.85;;;;;;;4.78;100.00;96806.59;5075805;28;20039;-58
2022/02/11 09:43:08;;;;;;;6.45;5.85;;;;;;;4.77;100.00;96802.31;5086612;28;20438;-58
2022/02/11 09:45:33;;;;;;;3.40;3.20;;;;;;;4.71;100.00;96802.59;5061919;28;20044;-58
2022/02/11 09:47:59;;;;;;;4.93;4.43;;;;;;;4.69;100.00;96809.66;5076097;28;20029;-59
2022/02/11 09:50:25;;;;;;;8.15;6.70;;;;;;;4.73;100.00;96805.97;5080004;28;20025;-57
2022/02/11 09:52:53;;;;;;;6.68;5.53;;;;;;;4.69;100.00;96807.06;5071487;28;20020;-59
2022/02/11 09:55:32;;;;;;;4.32;3.90;;;;;;;4.73;100.00;96801.59;5081864;28;20028;-58
2022/02/11 09:58:16;;;;;;;2.67;2.58;;;;;;;4.71;100.00;96798.22;5072250;28;20032;-58
2022/02/11 10:00:47;;;;;;;3.00;2.80;;;;;;;4.79;100.00;96799.59;5076409;28;20564;-57
2022/02/11 10:03:23;;;;;;;2.38;2.28;;;;;;;4.87;100.00;96798.28;5075377;28;20105;-59
2022/02/11 10:06:03;;;;;;;2.72;2.53;;;;;;;4.85;100.00;96799.28;5074264;28;20392;-58
2022/02/11 10:08:31;;;;;;;2.83;2.63;;;;;;;4.86;100.00;96806.19;5077938;28;20042;-59
2022/02/11 10:10:58;;;;;;;2.20;2.10;;;;;;;5.01;99.95;96804.56;5076949;28;20036;-58
2022/02/11 10:13:25;;;;;;;2.67;2.47;;;;;;;5.08;99.87;96802.44;5080230;28;20032;-59
2022/02/11 10:15:56;;;;;;;3.55;3.35;;;;;;;5.16;99.58;96806.34;5076997;28;20031;-58
2022/02/11 10:18:28;;;;;;;2.97;2.78;;;;;;;5.04;99.71;96809.63;5079011;28;20106;-58
2022/02/11 10:21:05;;;;;;;3.15;2.95;;;;;;;5.13;99.28;96809.13;5077046;28;20032;-58
2022/02/11 10:23:33;;;;;;;3.58;3.30;;;;;;;5.18;99.75;96810.63;5078682;28;20074;-58
2022/02/11 10:26:10;;;;;;;3.90;3.60;;;;;;;5.18;100.00;96810.63;5081224;28;20473;-58
2022/02/11 10:28:49;;;;;;;4.05;3.50;;;;;;;5.28;100.00;96797.03;5079122;28;20059;-58
2022/02/11 10:31:19;;;;;;;3.90;3.63;;;;;;;5.30;100.00;96800.41;5077992;28;20094;-58
2022/02/11 10:33:52;;;;;;;3.28;2.90;;;;;;;5.46;100.00;96796.97;5075643;28;20028;-58
2022/02/11 10:36:23;;;;;;;3.03;2.80;;;;;;;5.51;99.84;96805.38;5078693;28;20415;-58
2022/02/11 10:39:04;;;;;;;3.17;2.97;;;;;;;5.47;100.00;96803.03;5075214;28;20392;-58
2022/02/11 10:41:32;;;;;;;3.10;2.85;;;;;;;5.58;100.00;96798.06;5072172;28;20138;-58
2022/02/11 10:44:07;;;;;;;2.80;2.63;;;;;;;5.78;99.24;96790.91;5076593;28;20479;-58
2022/02/11 10:46:44;;;;;;;2.65;2.45;;;;;;;5.91;98.14;96798.91;5078431;28;20388;-59
2022/02/11 10:49:11;;;;;;;5.28;3.70;;;;;;;5.96;97.64;96804.69;5081112;28;20033;-58
2022/02/11 10:51:44;;;;;;;7.07;4.35;;;;;;;5.97;96.85;96796.78;5079377;28;20032;-58
2022/02/11 10:54:35;;;;;;;2.38;2.28;;;;;;;5.89;94.81;96791.16;5075536;28;20023;-58
2022/02/11 10:57:06;;;;;;;2.33;2.22;;;;;;;5.81;94.67;96790.72;5071176;28;20029;-58
2022/02/11 10:59:36;;;;;;;2.70;2.50;;;;;;;5.79;93.98;96790.84;5086084;28;20028;-57
2022/02/11 11:02:10;;;;;;;5.38;4.00;;;;;;;5.81;92.97;96796.81;5102077;28;20027;-59
2022/02/11 11:04:36;;;;;;;2.70;2.50;;;;;;;5.83;93.06;96796.72;5091651;28;20097;-57
2022/02/11 11:07:06;;;;;;;6.78;4.53;;;;;;;5.87;92.26;96787.78;5098767;28;20499;-58
2022/02/11 11:09:34;;;;;;;3.33;2.75;;;;;;;5.98;92.48;96785.41;5103366;28;20034;-58
2022/02/11 11:12:01;;;;;;;2.55;2.35;;;;;;;5.91;91.84;96784.06;5087438;28;20478;-59
2022/02/11 11:14:30;;;;;;;3.33;2.95;;;;;;;5.87;91.98;96787.78;5098232;28;20117;-58
2022/02/11 11:17:01;;;;;;;2.05;1.95;;;;;;;5.92;91.78;96787.50;5093792;28;20051;-58
2022/02/11 11:19:32;;;;;;;2.22;2.03;;;;;;;6.06;91.70;96786.75;5100629;28;20391;-58
2022/02/11 11:22:11;;;;;;;2.08;1.98;;;;;;;5.94;92.37;96793.50;5105011;28;20372;-58
2022/02/11 11:24:59;;;;;;;5.30;4.80;;;;;;;6.04;91.62;96799.09;5097677;28;20027;-58
2022/02/11 11:27:53;;;;;;;4.97;3.60;;;;;;;5.95;90.61;96796.03;5100036;28;20491;-58
2022/02/11 11:30:34;;;;;;;4.80;4.30;;;;;;;5.93;91.87;96797.91;5094443;28;20032;-58
2022/02/11 11:33:08;;;;;;;4.07;3.67;;;;;;;5.97;89.87;96794.19;5097840;28;21454;-58
2022/02/11 11:35:38;;;;;;;4.97;4.47;;;;;;;6.01;89.07;96785.25;5094914;28;20606;-58
2022/02/11 11:38:16;;;;;;;5.18;4.72;;;;;;;6.19;88.64;96787.75;5101201;28;20032;-57
2022/02/11 11:41:00;;;;;;;2.90;2.70;;;;;;;6.43;87.72;96784.66;5094416;28;20039;-58
2022/02/11 11:43:38;;;;;;;4.53;4.13;;;;;;;6.33;87.95;96778.28;5090352;28;20047;-58
2022/02/11 11:46:22;;;;;;;3.45;3.25;;;;;;;6.24;88.24;96770.03;5093668;28;20582;-57
2022/02/11 11:48:50;;;;;;;4.97;4.68;;;;;;;6.21;89.35;96762.38;5095667;28;20020;-54
2022/02/11 11:51:16;;;;;;;4.90;4.40;;;;;;;6.22;89.78;96771.06;5095148;28;20062;-56
2022/02/11 11:53:41;;;;;;;3.20;3.00;;;;;;;6.32;85.06;96766.97;5092471;28;20048;-58
2022/02/11 11:56:36;;;;;;;2.88;2.70;;;;;;;6.27;84.53;96767.22;5091654;28;20036;-58
2022/02/11 11:59:30;;;;;;;4.90;3.55;;;;;;;6.32;85.23;96766.16;5097741;28;20137;-59
2022/02/11 12:01:58;;;;;;;3.25;3.05;;;;;;;6.33;84.07;96758.19;5096594;28;20028;-57
2022/02/11 12:04:27;;;;;;;2.47;2.33;;;;;;;6.35;83.86;96761.56;5109930;27;20385;-55
2022/02/11 12:06:54;;;;;;;2.70;2.50;;;;;;;5.95;85.34;96754.22;5095448;28;20046;-58
2022/02/11 12:09:20;;;;;;;2.50;2.30;;;;;;;6.07;83.43;96751.84;5096679;28;20027;-57
2022/02/11 12:11:47;;;;;;;2.40;2.22;;;;;;;5.88;83.94;96752.88;5094852;28;20060;-58
2022/02/11 12:14:14;;;;;;;2.47;2.28;;;;;;;5.94;85.10;96754.28;5078351;28;20011;-58
2022/02/11 12:16:39;;;;;;;2.00;1.90;;;;;;;5.85;86.26;96742.56;5091672;28;20036;-58
2022/02/11 12:19:04;;;;;;;4.00;2.30;;;;;;;5.98;86.43;96753.22;5098808;28;20391;-58
2022/02/11 12:21:30;;;;;;;2.00;1.90;;;;;;;5.99;84.23;96744.44;5095543;28;20043;-57
2022/02/11 12:29:26;;;;;;;1.83;1.73;;;;;;;5.79;84.13;96738.56;5090471;28;20097;-58
2022/02/11 12:31:52;;;;;;;2.03;1.92;;;;;;;5.80;83.23;96731.56;5091927;28;20032;-58
2022/02/11 12:34:17;;;;;;;2.20;2.10;;;;;;;5.74;84.35;96730.97;5092194;28;20107;-58
2022/02/11 12:36:43;;;;;;;1.73;1.63;;;;;;;5.85;82.19;96735.59;5095626;28;20585;-58
2022/02/11 12:39:16;;;;;;;1.95;1.88;;;;;;;5.94;79.85;96726.38;5094526;28;20511;-56
2022/02/11 12:41:48;;;;;;;1.63;1.60;;;;;;;5.83;80.75;96734.84;5092877;28;20511;-56
2022/02/11 12:44:31;;;;;;;2.45;2.35;;;;;;;5.76;82.79;96737.88;5094992;28;20020;-57
2022/02/11 12:46:59;;;;;;;2.80;2.60;;;;;;;5.76;84.07;96736.13;5092600;28;20050;-55
2022/02/11 12:49:25;;;;;;;2.03;1.92;;;;;;;5.63;84.22;96735.13;5092069;28;20020;-57
2022/02/11 12:51:53;;;;;;;2.42;2.25;;;;;;;5.84;83.57;96727.81;5087437;28;20036;-56
2022/02/11 12:54:19;;;;;;;2.30;2.20;;;;;;;5.79;83.01;96733.34;5090040;28;20034;-55
2022/02/11 12:56:46;;;;;;;3.03;2.83;;;;;;;5.88;82.97;96734.59;5090293;28;20065;-57
2022/02/11 12:59:12;;;;;;;3.17;2.90;;;;;;;5.70;83.77;96726.84;5090846;28;20057;-56
2022/02/11 13:01:37;;;;;;;3.63;3.33;;;;;;;5.67;84.56;96734.88;5091512;28;20031;-57
2022/02/11 13:04:03;;;;;;;2.50;2.30;;;;;;;5.67;86.76;96734.00;5091504;28;20020;-57
2022/02/11 13:06:34;;;;;;;3.85;3.55;;;;;;;5.64;85.78;96731.56;5091389;28;20036;-59
2022/02/11 13:09:04;;;;;;;4.82;4.43;;;;;;;5.56;85.55;96722.41;5091486;28;20050;-58
2022/02/11 13:11:30;;;;;;;10.20;9.10;;;;;;;5.54;86.36;96723.41;5091267;28;20031;-58
2022/02/11 13:14:07;;;;;;;11.20;9.65;;;;;;;5.45;88.26;96722.16;5089383;28;20094;-57
2022/02/11 13:16:34;;;;;;;6.30;5.70;;;;;;;5.47;86.99;96714.25;5089894;28;20613;-58
2022/02/11 13:19:13;;;;;;;10.73;9.63;;;;;;;5.45;88.54;96709.94;5091312;28;20024;-58
2022/02/11 13:21:41;;;;;;;13.27;9.77;;;;;;;5.69;86.88;96714.72;5089552;28;20400;-58
2022/02/11 13:24:07;;;;;;;6.40;5.72;;;;;;;5.63;85.28;96706.38;5091125;28;20031;-57
2022/02/11 13:26:33;;;;;;;3.83;3.53;;;;;;;5.58;85.54;96704.00;5089038;28;20088;-57
2022/02/11 13:28:59;;;;;;;20.30;15.93;;;;;;;5.59;86.30;96696.09;5091134;28;20027;-57
2022/02/11 13:31:25;;;;;;;46.88;23.40;;;;;;;5.54;85.76;96698.13;5089316;28;20533;-57
2022/02/11 13:34:05;;;;;;;4.13;3.80;;;;;;;5.55;83.87;96691.13;5089263;28;20372;-57
2022/02/11 13:36:30;;;;;;;9.70;5.97;;;;;;;5.57;84.42;96691.88;5088981;28;20021;-58
2022/02/11 13:39:01;;;;;;;25.80;17.63;;;;;;;5.63;83.60;96696.75;5089462;28;20042;-56
2022/02/11 13:41:32;;;;;;;14.90;10.70;;;;;;;5.59;83.24;96697.84;5089244;28;20031;-58
2022/02/11 13:44:07;;;;;;;21.52;16.90;;;;;;;5.61;83.46;96698.63;5087056;28;20161;-57
2022/02/11 13:46:39;;;;;;;7.70;5.72;;;;;;;5.64;82.65;96695.84;5089165;28;20024;-58
2022/02/11 13:49:06;;;;;;;4.35;3.88;;;;;;;5.76;81.54;96694.31;5089319;28;20162;-58
2022/02/11 13:51:34;;;;;;;4.18;3.78;;;;;;;5.81;80.21;96692.28;5089088;28;20391;-57
2022/02/11 13:54:17;;;;;;;2.30;2.20;;;;;;;5.71;81.38;96689.34;5089429;28;20024;-57
2022/02/11 13:56:45;;;;;;;4.10;3.70;;;;;;;5.80;80.85;96681.91;5087896;28;20021;-57
2022/02/11 13:59:16;;;;;;;3.40;3.10;;;;;;;5.85;81.12;96690.31;5088924;28;20394;-57
2022/02/11 14:01:47;;;;;;;2.22;2.13;;;;;;;5.95;79.65;96682.78;5089070;28;20020;-58
2022/02/11 14:04:22;;;;;;;2.40;2.25;;;;;;;5.99;78.63;96677.28;5089011;28;20047;-58
2022/02/11 14:06:53;;;;;;;2.40;2.30;;;;;;;5.92;79.39;96675.97;5089359;28;20024;-56
2022/02/11 14:09:38;;;;;;;1.50;1.50;;;;;;;5.98;78.91;96674.78;5089163;28;20032;-58
2022/02/11 14:12:29;;;;;;;4.82;1.80;;;;;;;6.05;77.86;96670.03;5086862;28;20020;-58
2022/02/11 14:14:57;;;;;;;1.83;1.73;;;;;;;6.09;77.54;96672.41;5080695;28;20086;-57
2022/02/11 14:17:23;;;;;;;2.25;2.13;;;;;;;6.10;77.50;96670.66;5089000;28;20059;-57
2022/02/11 14:19:48;;;;;;;9.85;7.20;;;;;;;6.19;75.76;96670.09;5089645;28;20047;-56
2022/02/11 14:22:14;;;;;;;15.00;13.40;;;;;;;6.26;76.51;96667.97;5089415;28;20126;-57
2022/02/11 14:24:39;;;;;;;8.65;5.45;;;;;;;6.31;74.42;96673.75;5090333;28;20028;-57
2022/02/11 14:27:06;;;;;;;5.22;4.53;;;;;;;6.32;73.22;96678.03;5088353;28;20108;-56
2022/02/11 14:29:32;;;;;;;3.53;2.72;;;;;;;6.35;72.49;96687.50;5088907;28;20028;-57
2022/02/11 14:31:58;;;;;;;6.35;4.00;;;;;;;6.35;71.99;96684.88;5088482;28;20396;-58
2022/02/11 14:34:24;;;;;;;11.85;4.80;;;;;;;6.33;73.69;96692.81;5088784;28;20021;-57
2022/02/11 14:36:49;;;;;;;16.90;4.93;;;;;;;6.29;73.04;96681.66;5087462;28;20021;-58
2022/02/11 14:39:19;;;;;;;6.13;3.03;;;;;;;6.36;73.68;96691.78;5088585;28;20020;-57
2022/02/11 14:41:46;;;;;;;10.90;4.50;;;;;;;6.32;74.06;96698.16;5087195;28;20031;-57
2022/02/11 14:44:24;;;;;;;16.95;4.18;;;;;;;6.42;73.43;96694.03;5088632;28;20380;-57
2022/02/11 14:46:51;;;;;;;6.80;2.58;;;;;;;6.53;71.21;96698.63;5086498;28;20019;-56
2022/02/11 14:49:18;;;;;;;28.65;9.90;;;;;;;6.70;70.91;96698.47;5103676;28;20016;-57
2022/02/11 14:51:44;;;;;;;1.77;1.67;;;;;;;6.69;70.13;96699.38;5088287;28;20069;-58
2022/02/11 14:54:11;;;;;;;1.88;1.77;;;;;;;6.75;69.25;96706.03;5087383;28;20023;-57
2022/02/11 14:56:38;;;;;;;2.25;2.05;;;;;;;6.79;71.01;96707.53;5092026;28;20042;-57
2022/02/11 14:59:06;;;;;;;2.20;2.10;;;;;;;6.96;70.21;96706.47;5107546;28;20111;-56
2022/02/11 15:01:32;;;;;;;1.98;1.90;;;;;;;7.10;66.33;96705.63;5092086;28;20506;-57
2022/02/11 15:03:58;;;;;;;1.67;1.58;;;;;;;6.87;62.44;96707.88;5092245;28;20027;-58
2022/02/11 15:06:24;;;;;;;2.75;2.42;;;;;;;6.50;64.11;96710.09;5092003;28;20111;-57
2022/02/11 15:08:49;;;;;;;3.05;2.83;;;;;;;6.29;66.07;96705.22;5092244;28;20536;-56
2022/02/11 15:11:15;;;;;;;1.90;1.80;;;;;;;6.33;65.90;96702.44;5091466;28;20024;-57
2022/02/11 15:13:40;;;;;;;2.22;2.13;;;;;;;6.38;64.20;96703.00;5092135;28;20028;-58
2022/02/11 15:16:06;;;;;;;3.58;2.83;;;;;;;6.16;64.80;96706.88;5091724;28;20093;-57
2022/02/11 15:18:32;;;;;;;1.90;1.80;;;;;;;5.95;66.13;96709.78;5091478;28;20086;-57
2022/02/11 15:21:05;;;;;;;1.70;1.60;;;;;;;6.21;63.25;96712.69;5091409;28;20484;-58
2022/02/11 15:23:37;;;;;;;1.70;1.60;;;;;;;6.19;61.48;96714.53;5089245;28;20060;-57
2022/02/11 15:26:05;;;;;;;2.20;2.10;;;;;;;5.87;61.97;96698.94;5091355;28;20012;-57
2022/02/11 15:28:32;;;;;;;3.08;2.88;;;;;;;5.97;62.11;96710.53;5089116;28;20028;-56